sensor_id;sensor_type;location;lat;lon;timestamp;temperature;humidity
19348;DHT22;9810;52.480;9.806;2022-11-15T00:00:10;7.00;99.90
19348;DHT22;9810;52.480;9.806;2022-11-15T00:02:37;6.90;99.90
19348;DHT22;9810;52.480;9.806;2022-11-15T00:05:05;6.80;99.90
19348;DHT22;9810;52.480;9.806;2022-11-15T00:07:32;6.50;99.90
19348;DHT22;9810;52.480;9.806;2022-11-15T00:09:59;6.60;99.90
19348;DHT22;9810;52.480;9.806;2022-11-15T00:12:27;6.40;99.90
19348;DHT22;9810;52.480;9.806;2022-11-15T00:14:56;6.40;99.90
19348;DHT22;9810;52.480;9.806;2022-11-15T00:17:23;6.80;99.90
19348;DHT22;9810;52.480;9.806;2022-11-15T00:19:51;7.00;99.90
19348;DHT22;9810;52.480;9.806;2022-11-15T00:22:18;7.10;99.90
19348;DHT22;9810;52.480;9.806;2022-11-15T00:24:45;7.20;99.90
19348;DHT22;9810;52.480;9.806;2022-11-15T00:27:13;7.20;99.90
19348;DHT22;9810;52.480;9.806;2022-11-15T00:29:40;7.20;99.90
19348;DHT22;9810;52.480;9.806;2022-11-15T00:32:10;7.20;99.90
19348;DHT22;9810;52.480;9.806;2022-11-15T00:34:38;7.30;99.90
19348;DHT22;9810;52.480;9.806;2022-11-15T00:37:06;7.20;99.90
19348;DHT22;9810;52.480;9.806;2022-11-15T00:39:33;7.00;99.90
19348;DHT22;9810;52.480;9.806;2022-11-15T00:42:01;7.20;99.90
19348;DHT22;9810;52.480;9.806;2022-11-15T00:44:28;7.30;99.90
19348;DHT22;9810;52.480;9.806;2022-11-15T00:46:55;7.30;99.90
19348;DHT22;9810;52.480;9.806;2022-11-15T00:49:24;6.90;99.90
19348;DHT22;9810;52.480;9.806;2022-11-15T00:51:51;6.60;99.90
19348;DHT22;9810;52.480;9.806;2022-11-15T00:54:19;6.40;99.90
19348;DHT22;9810;52.480;9.806;2022-11-15T00:56:46;6.30;99.90
19348;DHT22;9810;52.480;9.806;2022-11-15T00:59:13;6.20;99.90
19348;DHT22;9810;52.480;9.806;2022-11-15T01:01:40;6.10;99.90
19348;DHT22;9810;52.480;9.806;2022-11-15T01:04:08;6.00;99.90
19348;DHT22;9810;52.480;9.806;2022-11-15T01:06:37;6.00;99.90
19348;DHT22;9810;52.480;9.806;2022-11-15T01:09:04;6.10;99.90
19348;DHT22;9810;52.480;9.806;2022-11-15T01:11:31;6.30;99.90
19348;DHT22;9810;52.480;9.806;2022-11-15T01:13:58;6.30;99.90
19348;DHT22;9810;52.480;9.806;2022-11-15T01:16:26;6.50;99.90
19348;DHT22;9810;52.480;9.806;2022-11-15T01:18:53;6.60;99.90
19348;DHT22;9810;52.480;9.806;2022-11-15T01:21:20;6.60;99.90
19348;DHT22;9810;52.480;9.806;2022-11-15T01:23:52;6.60;99.90
19348;DHT22;9810;52.480;9.806;2022-11-15T01:26:20;6.70;99.90
19348;DHT22;9810;52.480;9.806;2022-11-15T01:28:47;6.70;99.90
19348;DHT22;9810;52.480;9.806;2022-11-15T01:31:17;6.70;99.90
19348;DHT22;9810;52.480;9.806;2022-11-15T01:33:45;6.80;99.90
19348;DHT22;9810;52.480;9.806;2022-11-15T01:36:14;6.90;99.90
19348;DHT22;9810;52.480;9.806;2022-11-15T01:38:41;7.00;99.90
19348;DHT22;9810;52.480;9.806;2022-11-15T01:41:16;7.00;99.90
19348;DHT22;9810;52.480;9.806;2022-11-15T01:43:44;7.00;99.90
19348;DHT22;9810;52.480;9.806;2022-11-15T01:46:23;7.00;99.90
19348;DHT22;9810;52.480;9.806;2022-11-15T01:48:52;7.00;99.90
19348;DHT22;9810;52.480;9.806;2022-11-15T01:51:23;7.10;99.90
19348;DHT22;9810;52.480;9.806;2022-11-15T01:53:54;7.10;99.90
19348;DHT22;9810;52.480;9.806;2022-11-15T01:56:27;7.30;99.90
19348;DHT22;9810;52.480;9.806;2022-11-15T01:58:57;7.40;99.90
19348;DHT22;9810;52.480;9.806;2022-11-15T02:01:26;7.30;99.90
19348;DHT22;9810;52.480;9.806;2022-11-15T02:03:57;7.10;99.90
19348;DHT22;9810;52.480;9.806;2022-11-15T02:06:26;7.00;99.90
19348;DHT22;9810;52.480;9.806;2022-11-15T02:08:53;6.80;99.90
19348;DHT22;9810;52.480;9.806;2022-11-15T02:11:23;6.70;99.90
19348;DHT22;9810;52.480;9.806;2022-11-15T02:13:50;6.60;99.90
19348;DHT22;9810;52.480;9.806;2022-11-15T02:16:25;6.60;99.90
19348;DHT22;9810;52.480;9.806;2022-11-15T02:18:59;6.60;99.90
19348;DHT22;9810;52.480;9.806;2022-11-15T02:21:35;6.70;99.90
19348;DHT22;9810;52.480;9.806;2022-11-15T02:24:34;6.60;99.90
19348;DHT22;9810;52.480;9.806;2022-11-15T02:27:38;6.60;99.90
19348;DHT22;9810;52.480;9.806;2022-11-15T02:30:27;6.70;99.90
19348;DHT22;9810;52.480;9.806;2022-11-15T02:33:03;6.80;99.90
19348;DHT22;9810;52.480;9.806;2022-11-15T02:35:39;7.20;99.90
19348;DHT22;9810;52.480;9.806;2022-11-15T02:38:17;7.30;99.90
19348;DHT22;9810;52.480;9.806;2022-11-15T02:40:55;7.30;99.90
19348;DHT22;9810;52.480;9.806;2022-11-15T02:43:27;7.60;99.90
19348;DHT22;9810;52.480;9.806;2022-11-15T02:46:18;8.00;99.90
19348;DHT22;9810;52.480;9.806;2022-11-15T02:48:47;8.20;99.90
19348;DHT22;9810;52.480;9.806;2022-11-15T02:51:15;8.20;99.90
19348;DHT22;9810;52.480;9.806;2022-11-15T02:53:43;8.20;99.90
19348;DHT22;9810;52.480;9.806;2022-11-15T02:56:11;8.30;99.90
19348;DHT22;9810;52.480;9.806;2022-11-15T02:58:55;8.50;99.90
19348;DHT22;9810;52.480;9.806;2022-11-15T03:01:37;8.50;99.90
19348;DHT22;9810;52.480;9.806;2022-11-15T03:04:16;8.50;99.90
19348;DHT22;9810;52.480;9.806;2022-11-15T03:06:50;8.60;99.90
19348;DHT22;9810;52.480;9.806;2022-11-15T03:09:27;8.70;99.90
19348;DHT22;9810;52.480;9.806;2022-11-15T03:11:59;8.70;99.90
19348;DHT22;9810;52.480;9.806;2022-11-15T03:14:30;8.70;99.90
19348;DHT22;9810;52.480;9.806;2022-11-15T03:17:04;8.70;99.90
19348;DHT22;9810;52.480;9.806;2022-11-15T03:19:40;8.50;99.90
19348;DHT22;9810;52.480;9.806;2022-11-15T03:22:14;8.50;99.90
19348;DHT22;9810;52.480;9.806;2022-11-15T03:24:44;8.50;99.90
19348;DHT22;9810;52.480;9.806;2022-11-15T03:27:14;8.50;99.90
19348;DHT22;9810;52.480;9.806;2022-11-15T03:29:46;8.40;99.90
19348;DHT22;9810;52.480;9.806;2022-11-15T03:32:21;8.30;99.90
19348;DHT22;9810;52.480;9.806;2022-11-15T03:34:53;8.20;99.90
19348;DHT22;9810;52.480;9.806;2022-11-15T03:37:27;8.30;99.90
19348;DHT22;9810;52.480;9.806;2022-11-15T03:39:56;8.40;99.90
19348;DHT22;9810;52.480;9.806;2022-11-15T03:42:29;8.20;99.90
19348;DHT22;9810;52.480;9.806;2022-11-15T03:45:01;8.10;99.90
19348;DHT22;9810;52.480;9.806;2022-11-15T03:47:36;8.20;99.90
19348;DHT22;9810;52.480;9.806;2022-11-15T03:50:09;8.10;99.90
19348;DHT22;9810;52.480;9.806;2022-11-15T03:52:39;8.30;99.90
19348;DHT22;9810;52.480;9.806;2022-11-15T03:55:10;8.50;99.90
19348;DHT22;9810;52.480;9.806;2022-11-15T03:57:38;8.60;99.90
19348;DHT22;9810;52.480;9.806;2022-11-15T04:00:06;8.60;99.90
19348;DHT22;9810;52.480;9.806;2022-11-15T04:02:35;8.70;99.90
19348;DHT22;9810;52.480;9.806;2022-11-15T04:05:03;8.60;99.90
19348;DHT22;9810;52.480;9.806;2022-11-15T04:07:30;8.50;99.90
19348;DHT22;9810;52.480;9.806;2022-11-15T04:09:58;8.50;99.90
19348;DHT22;9810;52.480;9.806;2022-11-15T04:12:32;8.50;99.90
19348;DHT22;9810;52.480;9.806;2022-11-15T04:15:01;8.70;99.90
19348;DHT22;9810;52.480;9.806;2022-11-15T04:17:39;8.70;99.90
19348;DHT22;9810;52.480;9.806;2022-11-15T04:20:08;8.70;99.90
19348;DHT22;9810;52.480;9.806;2022-11-15T04:22:54;8.60;99.90
19348;DHT22;9810;52.480;9.806;2022-11-15T04:25:39;8.60;99.90
19348;DHT22;9810;52.480;9.806;2022-11-15T04:28:06;8.70;99.90
19348;DHT22;9810;52.480;9.806;2022-11-15T04:30:34;8.90;99.90
19348;DHT22;9810;52.480;9.806;2022-11-15T04:33:03;9.00;99.90
19348;DHT22;9810;52.480;9.806;2022-11-15T04:35:30;9.10;99.90
19348;DHT22;9810;52.480;9.806;2022-11-15T04:37:57;9.00;99.90
19348;DHT22;9810;52.480;9.806;2022-11-15T04:40:24;8.80;99.90
19348;DHT22;9810;52.480;9.806;2022-11-15T04:42:51;8.70;99.90
19348;DHT22;9810;52.480;9.806;2022-11-15T04:45:18;8.90;99.90
19348;DHT22;9810;52.480;9.806;2022-11-15T04:47:46;8.90;99.90
19348;DHT22;9810;52.480;9.806;2022-11-15T04:50:16;8.60;99.90
19348;DHT22;9810;52.480;9.806;2022-11-15T04:52:50;8.30;99.90
19348;DHT22;9810;52.480;9.806;2022-11-15T04:55:18;8.30;99.90
19348;DHT22;9810;52.480;9.806;2022-11-15T04:57:45;8.10;99.90
19348;DHT22;9810;52.480;9.806;2022-11-15T05:00:15;8.00;99.90
19348;DHT22;9810;52.480;9.806;2022-11-15T05:02:42;7.80;99.90
19348;DHT22;9810;52.480;9.806;2022-11-15T05:05:29;7.80;99.90
19348;DHT22;9810;52.480;9.806;2022-11-15T05:07:56;7.80;99.90
19348;DHT22;9810;52.480;9.806;2022-11-15T05:10:23;7.80;99.90
19348;DHT22;9810;52.480;9.806;2022-11-15T05:12:50;7.90;99.90
19348;DHT22;9810;52.480;9.806;2022-11-15T05:15:18;8.20;99.90
19348;DHT22;9810;52.480;9.806;2022-11-15T05:17:45;8.50;99.90
19348;DHT22;9810;52.480;9.806;2022-11-15T05:20:13;8.70;99.90
19348;DHT22;9810;52.480;9.806;2022-11-15T05:22:42;8.90;99.90
19348;DHT22;9810;52.480;9.806;2022-11-15T05:25:09;9.00;99.90
19348;DHT22;9810;52.480;9.806;2022-11-15T05:27:36;9.30;99.90
19348;DHT22;9810;52.480;9.806;2022-11-15T05:30:04;9.40;99.90
19348;DHT22;9810;52.480;9.806;2022-11-15T05:32:31;9.60;99.90
19348;DHT22;9810;52.480;9.806;2022-11-15T05:34:59;9.70;99.90
19348;DHT22;9810;52.480;9.806;2022-11-15T05:37:26;9.80;99.90
19348;DHT22;9810;52.480;9.806;2022-11-15T05:39:56;9.80;99.90
19348;DHT22;9810;52.480;9.806;2022-11-15T05:42:25;9.90;99.90
19348;DHT22;9810;52.480;9.806;2022-11-15T05:44:53;10.00;99.90
19348;DHT22;9810;52.480;9.806;2022-11-15T05:47:24;10.00;99.90
19348;DHT22;9810;52.480;9.806;2022-11-15T05:49:52;10.00;99.90
19348;DHT22;9810;52.480;9.806;2022-11-15T05:52:23;10.10;99.90
19348;DHT22;9810;52.480;9.806;2022-11-15T05:54:52;10.20;99.90
19348;DHT22;9810;52.480;9.806;2022-11-15T05:57:21;10.20;99.90
19348;DHT22;9810;52.480;9.806;2022-11-15T05:59:48;10.30;99.90
19348;DHT22;9810;52.480;9.806;2022-11-15T06:02:16;10.30;99.90
19348;DHT22;9810;52.480;9.806;2022-11-15T06:04:43;10.30;99.90
19348;DHT22;9810;52.480;9.806;2022-11-15T06:07:10;10.40;99.90
19348;DHT22;9810;52.480;9.806;2022-11-15T06:09:37;10.40;99.90
19348;DHT22;9810;52.480;9.806;2022-11-15T06:12:05;10.50;99.90
19348;DHT22;9810;52.480;9.806;2022-11-15T06:14:34;10.50;99.90
19348;DHT22;9810;52.480;9.806;2022-11-15T06:17:02;10.40;99.90
19348;DHT22;9810;52.480;9.806;2022-11-15T06:19:29;10.40;99.90
19348;DHT22;9810;52.480;9.806;2022-11-15T06:21:58;10.40;99.90
19348;DHT22;9810;52.480;9.806;2022-11-15T06:24:26;10.30;99.90
19348;DHT22;9810;52.480;9.806;2022-11-15T06:26:53;10.30;99.90
19348;DHT22;9810;52.480;9.806;2022-11-15T06:29:20;10.40;99.90
19348;DHT22;9810;52.480;9.806;2022-11-15T06:31:49;10.50;99.90
19348;DHT22;9810;52.480;9.806;2022-11-15T06:34:17;10.40;99.90
19348;DHT22;9810;52.480;9.806;2022-11-15T06:36:44;10.30;99.90
19348;DHT22;9810;52.480;9.806;2022-11-15T06:39:12;10.50;99.90
19348;DHT22;9810;52.480;9.806;2022-11-15T06:41:39;10.50;99.90
19348;DHT22;9810;52.480;9.806;2022-11-15T06:44:06;10.50;99.90
19348;DHT22;9810;52.480;9.806;2022-11-15T06:46:34;10.60;99.90
19348;DHT22;9810;52.480;9.806;2022-11-15T06:49:02;10.60;99.90
19348;DHT22;9810;52.480;9.806;2022-11-15T06:51:30;10.60;99.90
19348;DHT22;9810;52.480;9.806;2022-11-15T06:53:57;10.60;99.90
19348;DHT22;9810;52.480;9.806;2022-11-15T06:56:24;10.60;99.90
19348;DHT22;9810;52.480;9.806;2022-11-15T06:58:52;10.50;99.90
19348;DHT22;9810;52.480;9.806;2022-11-15T07:01:19;10.50;99.90
19348;DHT22;9810;52.480;9.806;2022-11-15T07:03:46;10.40;99.90
19348;DHT22;9810;52.480;9.806;2022-11-15T07:06:15;10.30;99.90
19348;DHT22;9810;52.480;9.806;2022-11-15T07:08:42;10.30;99.90
19348;DHT22;9810;52.480;9.806;2022-11-15T07:11:11;10.30;99.90
19348;DHT22;9810;52.480;9.806;2022-11-15T07:13:38;10.20;99.90
19348;DHT22;9810;52.480;9.806;2022-11-15T07:16:07;10.30;99.90
19348;DHT22;9810;52.480;9.806;2022-11-15T07:18:35;10.30;99.90
19348;DHT22;9810;52.480;9.806;2022-11-15T07:21:04;10.30;99.90
19348;DHT22;9810;52.480;9.806;2022-11-15T07:23:35;10.30;99.90
19348;DHT22;9810;52.480;9.806;2022-11-15T07:26:02;10.40;99.90
19348;DHT22;9810;52.480;9.806;2022-11-15T07:28:30;10.60;99.90
19348;DHT22;9810;52.480;9.806;2022-11-15T07:30:57;10.70;99.90
19348;DHT22;9810;52.480;9.806;2022-11-15T07:33:24;10.90;99.90
19348;DHT22;9810;52.480;9.806;2022-11-15T07:35:51;11.20;99.90
19348;DHT22;9810;52.480;9.806;2022-11-15T07:38:19;11.30;99.90
19348;DHT22;9810;52.480;9.806;2022-11-15T07:40:56;11.40;99.90
19348;DHT22;9810;52.480;9.806;2022-11-15T07:43:24;11.30;99.90
19348;DHT22;9810;52.480;9.806;2022-11-15T07:45:53;11.30;99.90
19348;DHT22;9810;52.480;9.806;2022-11-15T07:48:21;11.20;99.90
19348;DHT22;9810;52.480;9.806;2022-11-15T07:50:49;11.20;99.90
19348;DHT22;9810;52.480;9.806;2022-11-15T07:53:17;11.00;99.90
19348;DHT22;9810;52.480;9.806;2022-11-15T07:55:44;10.90;99.90
19348;DHT22;9810;52.480;9.806;2022-11-15T07:58:13;10.90;99.90
19348;DHT22;9810;52.480;9.806;2022-11-15T08:00:40;10.80;99.90
19348;DHT22;9810;52.480;9.806;2022-11-15T08:03:08;10.70;99.90
19348;DHT22;9810;52.480;9.806;2022-11-15T08:05:37;10.70;99.90
19348;DHT22;9810;52.480;9.806;2022-11-15T08:08:05;10.70;99.90
19348;DHT22;9810;52.480;9.806;2022-11-15T08:10:33;10.70;99.90
19348;DHT22;9810;52.480;9.806;2022-11-15T08:13:01;10.70;99.90
19348;DHT22;9810;52.480;9.806;2022-11-15T08:15:31;10.60;99.90
19348;DHT22;9810;52.480;9.806;2022-11-15T08:18:00;10.70;99.90
19348;DHT22;9810;52.480;9.806;2022-11-15T08:20:29;10.80;99.90
19348;DHT22;9810;52.480;9.806;2022-11-15T08:22:57;10.80;99.90
19348;DHT22;9810;52.480;9.806;2022-11-15T08:25:25;11.00;99.90
19348;DHT22;9810;52.480;9.806;2022-11-15T08:27:55;11.40;99.90
19348;DHT22;9810;52.480;9.806;2022-11-15T08:30:23;12.00;99.90
19348;DHT22;9810;52.480;9.806;2022-11-15T08:32:53;12.90;99.90
19348;DHT22;9810;52.480;9.806;2022-11-15T08:35:20;14.30;99.90
19348;DHT22;9810;52.480;9.806;2022-11-15T08:37:48;15.50;99.90
19348;DHT22;9810;52.480;9.806;2022-11-15T08:40:15;16.40;99.90
19348;DHT22;9810;52.480;9.806;2022-11-15T08:42:45;17.10;99.90
19348;DHT22;9810;52.480;9.806;2022-11-15T08:45:13;16.70;99.90
19348;DHT22;9810;52.480;9.806;2022-11-15T08:47:40;16.60;99.90
19348;DHT22;9810;52.480;9.806;2022-11-15T08:50:10;16.70;99.90
19348;DHT22;9810;52.480;9.806;2022-11-15T08:52:37;17.70;99.90
19348;DHT22;9810;52.480;9.806;2022-11-15T08:55:06;18.50;99.90
19348;DHT22;9810;52.480;9.806;2022-11-15T08:57:33;18.70;99.90
19348;DHT22;9810;52.480;9.806;2022-11-15T09:00:01;18.70;99.90
19348;DHT22;9810;52.480;9.806;2022-11-15T09:02:28;19.30;99.90
19348;DHT22;9810;52.480;9.806;2022-11-15T09:04:55;19.60;99.90
19348;DHT22;9810;52.480;9.806;2022-11-15T09:07:24;19.20;99.90
19348;DHT22;9810;52.480;9.806;2022-11-15T09:09:52;18.90;99.90
19348;DHT22;9810;52.480;9.806;2022-11-15T09:12:19;18.60;99.90
19348;DHT22;9810;52.480;9.806;2022-11-15T09:14:46;18.20;99.90
19348;DHT22;9810;52.480;9.806;2022-11-15T09:17:14;18.30;99.90
19348;DHT22;9810;52.480;9.806;2022-11-15T09:19:41;18.70;99.90
19348;DHT22;9810;52.480;9.806;2022-11-15T09:22:08;18.30;99.90
19348;DHT22;9810;52.480;9.806;2022-11-15T09:24:37;17.60;99.90
19348;DHT22;9810;52.480;9.806;2022-11-15T09:27:04;19.20;99.90
19348;DHT22;9810;52.480;9.806;2022-11-15T09:29:32;19.40;99.90
19348;DHT22;9810;52.480;9.806;2022-11-15T09:31:59;20.50;99.90
19348;DHT22;9810;52.480;9.806;2022-11-15T09:34:26;21.40;99.90
19348;DHT22;9810;52.480;9.806;2022-11-15T09:36:53;21.10;99.90
19348;DHT22;9810;52.480;9.806;2022-11-15T09:39:21;21.40;99.90
19348;DHT22;9810;52.480;9.806;2022-11-15T09:44:59;20.40;99.90
19348;DHT22;9810;52.480;9.806;2022-11-15T09:47:56;21.50;99.90
19348;DHT22;9810;52.480;9.806;2022-11-15T09:50:32;20.80;99.90
19348;DHT22;9810;52.480;9.806;2022-11-15T09:53:01;21.50;99.90
19348;DHT22;9810;52.480;9.806;2022-11-15T09:55:35;21.60;99.90
19348;DHT22;9810;52.480;9.806;2022-11-15T09:58:15;20.70;99.90
19348;DHT22;9810;52.480;9.806;2022-11-15T10:00:47;19.40;99.90
19348;DHT22;9810;52.480;9.806;2022-11-15T10:03:23;19.30;99.90
19348;DHT22;9810;52.480;9.806;2022-11-15T10:05:55;18.90;99.90
19348;DHT22;9810;52.480;9.806;2022-11-15T10:08:33;18.80;99.90
19348;DHT22;9810;52.480;9.806;2022-11-15T10:11:04;19.00;99.90
19348;DHT22;9810;52.480;9.806;2022-11-15T10:13:36;18.80;99.90
19348;DHT22;9810;52.480;9.806;2022-11-15T10:16:12;18.50;99.90
19348;DHT22;9810;52.480;9.806;2022-11-15T10:18:50;18.90;99.90
19348;DHT22;9810;52.480;9.806;2022-11-15T10:21:24;19.10;99.90
19348;DHT22;9810;52.480;9.806;2022-11-15T10:23:53;18.60;99.90
19348;DHT22;9810;52.480;9.806;2022-11-15T10:26:21;18.10;99.90
19348;DHT22;9810;52.480;9.806;2022-11-15T10:28:52;18.50;99.90
19348;DHT22;9810;52.480;9.806;2022-11-15T10:31:23;18.30;99.90
19348;DHT22;9810;52.480;9.806;2022-11-15T10:33:53;18.30;99.90
19348;DHT22;9810;52.480;9.806;2022-11-15T10:36:24;18.30;99.90
19348;DHT22;9810;52.480;9.806;2022-11-15T10:38:56;18.40;99.90
19348;DHT22;9810;52.480;9.806;2022-11-15T10:41:31;18.40;99.90
19348;DHT22;9810;52.480;9.806;2022-11-15T10:44:28;18.40;99.90
19348;DHT22;9810;52.480;9.806;2022-11-15T10:47:27;18.20;99.90
19348;DHT22;9810;52.480;9.806;2022-11-15T10:50:02;17.90;99.90
19348;DHT22;9810;52.480;9.806;2022-11-15T10:52:30;17.80;99.90
19348;DHT22;9810;52.480;9.806;2022-11-15T10:55:03;17.90;99.90
19348;DHT22;9810;52.480;9.806;2022-11-15T10:57:32;18.00;99.90
19348;DHT22;9810;52.480;9.806;2022-11-15T11:00:06;17.70;99.90
19348;DHT22;9810;52.480;9.806;2022-11-15T11:02:36;18.00;99.90
19348;DHT22;9810;52.480;9.806;2022-11-15T11:05:07;18.30;99.90
19348;DHT22;9810;52.480;9.806;2022-11-15T11:07:56;18.40;99.90
19348;DHT22;9810;52.480;9.806;2022-11-15T11:10:24;18.30;99.90
19348;DHT22;9810;52.480;9.806;2022-11-15T11:12:52;18.70;99.90
19348;DHT22;9810;52.480;9.806;2022-11-15T11:15:23;18.90;99.90
19348;DHT22;9810;52.480;9.806;2022-11-15T11:18:00;18.70;99.90
19348;DHT22;9810;52.480;9.806;2022-11-15T11:20:35;19.10;99.90
19348;DHT22;9810;52.480;9.806;2022-11-15T11:23:12;19.20;99.90
19348;DHT22;9810;52.480;9.806;2022-11-15T11:25:49;19.20;99.90
19348;DHT22;9810;52.480;9.806;2022-11-15T11:28:31;18.70;99.90
19348;DHT22;9810;52.480;9.806;2022-11-15T11:31:15;18.70;99.90
19348;DHT22;9810;52.480;9.806;2022-11-15T11:33:50;18.50;99.90
19348;DHT22;9810;52.480;9.806;2022-11-15T11:36:26;18.80;99.90
19348;DHT22;9810;52.480;9.806;2022-11-15T11:39:09;18.40;99.90
19348;DHT22;9810;52.480;9.806;2022-11-15T11:41:52;18.40;99.90
19348;DHT22;9810;52.480;9.806;2022-11-15T11:44:34;18.20;99.90
19348;DHT22;9810;52.480;9.806;2022-11-15T11:47:09;17.80;99.90
19348;DHT22;9810;52.480;9.806;2022-11-15T11:49:42;17.80;99.90
19348;DHT22;9810;52.480;9.806;2022-11-15T11:52:17;17.60;99.90
19348;DHT22;9810;52.480;9.806;2022-11-15T11:54:53;17.50;99.90
19348;DHT22;9810;52.480;9.806;2022-11-15T11:57:28;17.60;99.90
19348;DHT22;9810;52.480;9.806;2022-11-15T12:00:03;17.10;99.90
19348;DHT22;9810;52.480;9.806;2022-11-15T12:02:34;17.10;99.90
19348;DHT22;9810;52.480;9.806;2022-11-15T12:05:09;17.00;99.90
19348;DHT22;9810;52.480;9.806;2022-11-15T12:07:39;16.90;99.90
19348;DHT22;9810;52.480;9.806;2022-11-15T12:10:17;16.60;99.90
19348;DHT22;9810;52.480;9.806;2022-11-15T12:12:52;16.20;99.90
19348;DHT22;9810;52.480;9.806;2022-11-15T12:15:22;16.00;99.90
19348;DHT22;9810;52.480;9.806;2022-11-15T12:17:53;15.90;99.90
19348;DHT22;9810;52.480;9.806;2022-11-15T12:20:23;15.60;99.90
19348;DHT22;9810;52.480;9.806;2022-11-15T12:22:55;15.60;99.90
19348;DHT22;9810;52.480;9.806;2022-11-15T12:25:28;15.70;99.90
19348;DHT22;9810;52.480;9.806;2022-11-15T12:28:00;15.50;99.90
19348;DHT22;9810;52.480;9.806;2022-11-15T12:30:45;15.40;99.90
19348;DHT22;9810;52.480;9.806;2022-11-15T12:33:34;15.30;99.90
19348;DHT22;9810;52.480;9.806;2022-11-15T12:36:04;15.30;99.90
19348;DHT22;9810;52.480;9.806;2022-11-15T12:38:53;15.40;99.90
19348;DHT22;9810;52.480;9.806;2022-11-15T12:41:22;15.50;99.90
19348;DHT22;9810;52.480;9.806;2022-11-15T12:43:50;15.30;99.90
19348;DHT22;9810;52.480;9.806;2022-11-15T12:46:23;15.30;99.90
19348;DHT22;9810;52.480;9.806;2022-11-15T12:48:55;15.20;99.90
19348;DHT22;9810;52.480;9.806;2022-11-15T12:54:52;15.30;99.90
19348;DHT22;9810;52.480;9.806;2022-11-15T12:57:38;15.40;99.90
19348;DHT22;9810;52.480;9.806;2022-11-15T13:03:24;15.20;99.90
19348;DHT22;9810;52.480;9.806;2022-11-15T13:06:08;15.20;99.90
19348;DHT22;9810;52.480;9.806;2022-11-15T13:08:42;15.20;99.90
19348;DHT22;9810;52.480;9.806;2022-11-15T13:11:44;15.10;99.90
19348;DHT22;9810;52.480;9.806;2022-11-15T13:14:38;15.20;99.90
19348;DHT22;9810;52.480;9.806;2022-11-15T13:17:31;15.00;99.90
19348;DHT22;9810;52.480;9.806;2022-11-15T13:23:07;14.90;99.90
19348;DHT22;9810;52.480;9.806;2022-11-15T13:26:05;15.00;99.90
19348;DHT22;9810;52.480;9.806;2022-11-15T13:28:39;15.00;99.90
19348;DHT22;9810;52.480;9.806;2022-11-15T13:31:36;14.90;99.90
19348;DHT22;9810;52.480;9.806;2022-11-15T13:34:27;14.90;99.90
19348;DHT22;9810;52.480;9.806;2022-11-15T13:36:56;15.00;99.90
19348;DHT22;9810;52.480;9.806;2022-11-15T13:39:29;15.00;99.90
19348;DHT22;9810;52.480;9.806;2022-11-15T13:41:57;14.90;99.90
19348;DHT22;9810;52.480;9.806;2022-11-15T13:44:26;14.90;99.90
19348;DHT22;9810;52.480;9.806;2022-11-15T13:47:01;15.00;99.90
19348;DHT22;9810;52.480;9.806;2022-11-15T13:49:30;15.00;99.90
19348;DHT22;9810;52.480;9.806;2022-11-15T13:51:58;15.00;99.90
19348;DHT22;9810;52.480;9.806;2022-11-15T13:54:30;14.90;99.90
19348;DHT22;9810;52.480;9.806;2022-11-15T13:57:00;14.70;99.90
19348;DHT22;9810;52.480;9.806;2022-11-15T13:59:31;14.80;99.90
19348;DHT22;9810;52.480;9.806;2022-11-15T14:02:02;14.80;99.90
19348;DHT22;9810;52.480;9.806;2022-11-15T14:04:31;14.70;99.90
19348;DHT22;9810;52.480;9.806;2022-11-15T14:07:01;14.70;99.90
19348;DHT22;9810;52.480;9.806;2022-11-15T14:09:33;14.70;99.90
19348;DHT22;9810;52.480;9.806;2022-11-15T14:12:02;14.60;99.90
19348;DHT22;9810;52.480;9.806;2022-11-15T14:14:30;14.60;99.90
19348;DHT22;9810;52.480;9.806;2022-11-15T14:16:59;14.60;99.90
19348;DHT22;9810;52.480;9.806;2022-11-15T14:19:38;14.50;99.90
19348;DHT22;9810;52.480;9.806;2022-11-15T14:22:20;14.50;99.90
19348;DHT22;9810;52.480;9.806;2022-11-15T14:25:07;14.50;99.90
19348;DHT22;9810;52.480;9.806;2022-11-15T14:27:41;14.50;99.90
19348;DHT22;9810;52.480;9.806;2022-11-15T14:30:17;14.40;99.90
19348;DHT22;9810;52.480;9.806;2022-11-15T14:32:46;14.30;99.90
19348;DHT22;9810;52.480;9.806;2022-11-15T14:35:15;14.30;99.90
19348;DHT22;9810;52.480;9.806;2022-11-15T14:37:44;14.20;99.90
19348;DHT22;9810;52.480;9.806;2022-11-15T14:40:15;14.20;99.90
19348;DHT22;9810;52.480;9.806;2022-11-15T14:42:45;14.20;99.90
19348;DHT22;9810;52.480;9.806;2022-11-15T14:45:14;14.20;99.90
19348;DHT22;9810;52.480;9.806;2022-11-15T14:47:42;14.30;99.90
19348;DHT22;9810;52.480;9.806;2022-11-15T14:50:12;14.30;99.90
19348;DHT22;9810;52.480;9.806;2022-11-15T14:52:40;14.30;99.90
19348;DHT22;9810;52.480;9.806;2022-11-15T14:55:16;14.20;99.90
19348;DHT22;9810;52.480;9.806;2022-11-15T14:57:45;14.20;99.90
19348;DHT22;9810;52.480;9.806;2022-11-15T15:00:13;14.20;99.90
19348;DHT22;9810;52.480;9.806;2022-11-15T15:02:42;14.10;99.90
19348;DHT22;9810;52.480;9.806;2022-11-15T15:05:15;14.20;99.90
19348;DHT22;9810;52.480;9.806;2022-11-15T15:07:43;14.10;99.90
19348;DHT22;9810;52.480;9.806;2022-11-15T15:10:13;14.10;99.90
19348;DHT22;9810;52.480;9.806;2022-11-15T15:12:42;14.10;99.90
19348;DHT22;9810;52.480;9.806;2022-11-15T15:15:13;14.00;99.90
19348;DHT22;9810;52.480;9.806;2022-11-15T15:17:41;14.00;99.90
19348;DHT22;9810;52.480;9.806;2022-11-15T15:20:09;14.00;99.90
19348;DHT22;9810;52.480;9.806;2022-11-15T15:22:37;14.00;99.90
19348;DHT22;9810;52.480;9.806;2022-11-15T15:25:23;13.90;99.90
19348;DHT22;9810;52.480;9.806;2022-11-15T15:27:52;13.90;99.90
19348;DHT22;9810;52.480;9.806;2022-11-15T15:30:20;13.90;99.90
19348;DHT22;9810;52.480;9.806;2022-11-15T15:32:47;13.90;99.90
19348;DHT22;9810;52.480;9.806;2022-11-15T15:35:15;13.90;99.90
19348;DHT22;9810;52.480;9.806;2022-11-15T15:37:44;13.90;99.90
19348;DHT22;9810;52.480;9.806;2022-11-15T15:40:14;13.90;99.90
19348;DHT22;9810;52.480;9.806;2022-11-15T15:42:44;13.80;99.90
19348;DHT22;9810;52.480;9.806;2022-11-15T15:45:14;13.80;99.90
19348;DHT22;9810;52.480;9.806;2022-11-15T15:47:41;13.90;99.90
19348;DHT22;9810;52.480;9.806;2022-11-15T15:50:21;13.90;99.90
19348;DHT22;9810;52.480;9.806;2022-11-15T15:52:49;13.90;99.90
19348;DHT22;9810;52.480;9.806;2022-11-15T15:55:17;13.90;99.90
19348;DHT22;9810;52.480;9.806;2022-11-15T15:57:46;13.80;99.90
19348;DHT22;9810;52.480;9.806;2022-11-15T16:00:14;13.80;99.90
19348;DHT22;9810;52.480;9.806;2022-11-15T16:02:41;13.80;99.90
19348;DHT22;9810;52.480;9.806;2022-11-15T16:05:09;13.80;99.90
19348;DHT22;9810;52.480;9.806;2022-11-15T16:07:37;13.70;99.90
19348;DHT22;9810;52.480;9.806;2022-11-15T16:10:17;13.70;99.90
19348;DHT22;9810;52.480;9.806;2022-11-15T16:12:46;13.70;99.90
19348;DHT22;9810;52.480;9.806;2022-11-15T16:15:14;13.60;99.90
19348;DHT22;9810;52.480;9.806;2022-11-15T16:17:45;13.50;99.90
19348;DHT22;9810;52.480;9.806;2022-11-15T16:20:32;13.50;99.90
19348;DHT22;9810;52.480;9.806;2022-11-15T16:23:01;13.40;99.90
19348;DHT22;9810;52.480;9.806;2022-11-15T16:25:28;13.30;99.90
19348;DHT22;9810;52.480;9.806;2022-11-15T16:27:59;13.20;99.90
19348;DHT22;9810;52.480;9.806;2022-11-15T16:30:27;13.10;99.90